sensor_id;sensor_type;location;lat;lon;timestamp;pressure;altitude;pressure_sealevel;temperature;humidity
50933;BME280;36921;49.006;9.292;2022-11-12T00:01:34;100401.97;;;3.02;100.00
50933;BME280;36921;49.006;9.292;2022-11-12T00:03:59;100394.88;;;3.01;100.00
50933;BME280;36921;49.006;9.292;2022-11-12T00:06:24;100420.69;;;3.02;100.00
50933;BME280;36921;49.006;9.292;2022-11-12T00:08:50;100413.31;;;2.93;100.00
50933;BME280;36921;49.006;9.292;2022-11-12T00:11:15;100412.31;;;2.82;100.00
50933;BME280;36921;49.006;9.292;2022-11-12T00:13:40;100423.47;;;2.76;100.00
50933;BME280;36921;49.006;9.292;2022-11-12T00:16:06;100403.81;;;2.64;100.00
50933;BME280;36921;49.006;9.292;2022-11-12T00:18:31;100408.50;;;2.50;100.00
50933;BME280;36921;49.006;9.292;2022-11-12T00:20:57;100403.81;;;2.40;100.00
50933;BME280;36921;49.006;9.292;2022-11-12T00:23:22;100381.34;;;2.19;100.00
50933;BME280;36921;49.006;9.292;2022-11-12T00:25:57;100371.53;;;2.07;100.00
50933;BME280;36921;49.006;9.292;2022-11-12T00:28:22;100411.53;;;2.32;100.00
50933;BME280;36921;49.006;9.292;2022-11-12T00:30:47;100383.03;;;2.20;100.00
50933;BME280;36921;49.006;9.292;2022-11-12T00:33:13;100416.31;;;2.40;100.00
50933;BME280;36921;49.006;9.292;2022-11-12T00:35:38;100408.09;;;2.43;100.00
50933;BME280;36921;49.006;9.292;2022-11-12T00:38:03;100420.59;;;2.42;100.00
50933;BME280;36921;49.006;9.292;2022-11-12T00:40:29;100407.97;;;2.45;100.00
50933;BME280;36921;49.006;9.292;2022-11-12T00:42:54;100407.41;;;2.52;100.00
50933;BME280;36921;49.006;9.292;2022-11-12T00:45:19;100412.22;;;2.60;100.00
50933;BME280;36921;49.006;9.292;2022-11-12T00:47:45;100418.31;;;2.62;100.00
50933;BME280;36921;49.006;9.292;2022-11-12T00:50:11;100411.22;;;2.61;100.00
50933;BME280;36921;49.006;9.292;2022-11-12T00:52:37;100412.31;;;2.58;100.00
50933;BME280;36921;49.006;9.292;2022-11-12T00:55:03;100408.88;;;2.56;100.00
50933;BME280;36921;49.006;9.292;2022-11-12T00:57:28;100397.34;;;2.56;100.00
50933;BME280;36921;49.006;9.292;2022-11-12T00:59:54;100365.28;;;2.32;100.00
50933;BME280;36921;49.006;9.292;2022-11-12T01:02:19;100412.31;;;2.58;100.00
50933;BME280;36921;49.006;9.292;2022-11-12T01:04:46;100423.13;;;2.57;100.00
50933;BME280;36921;49.006;9.292;2022-11-12T01:07:11;100394.09;;;2.39;100.00
50933;BME280;36921;49.006;9.292;2022-11-12T01:09:36;100426.44;;;2.48;100.00
50933;BME280;36921;49.006;9.292;2022-11-12T01:12:02;100417.25;;;2.52;100.00
50933;BME280;36921;49.006;9.292;2022-11-12T01:14:27;100398.59;;;2.39;100.00
50933;BME280;36921;49.006;9.292;2022-11-12T01:16:52;100393.94;;;2.17;100.00
50933;BME280;36921;49.006;9.292;2022-11-12T01:19:18;100422.75;;;2.37;100.00
50933;BME280;36921;49.006;9.292;2022-11-12T01:21:43;100389.34;;;2.19;100.00
50933;BME280;36921;49.006;9.292;2022-11-12T01:24:09;100408.38;;;2.14;100.00
50933;BME280;36921;49.006;9.292;2022-11-12T01:26:35;100401.66;;;2.09;100.00
50933;BME280;36921;49.006;9.292;2022-11-12T01:29:01;100402.94;;;2.03;100.00
50933;BME280;36921;49.006;9.292;2022-11-12T01:31:28;100383.97;;;1.95;100.00
50933;BME280;36921;49.006;9.292;2022-11-12T01:33:59;100376.19;;;1.92;100.00
50933;BME280;36921;49.006;9.292;2022-11-12T01:36:26;100395.03;;;2.02;100.00
50933;BME280;36921;49.006;9.292;2022-11-12T01:38:53;100395.25;;;1.98;100.00
50933;BME280;36921;49.006;9.292;2022-11-12T01:41:27;100397.22;;;1.84;100.00
50933;BME280;36921;49.006;9.292;2022-11-12T01:44:23;100386.97;;;1.78;100.00
50933;BME280;36921;49.006;9.292;2022-11-12T01:47:19;100377.56;;;1.72;100.00
50933;BME280;36921;49.006;9.292;2022-11-12T01:50:11;100354.09;;;1.51;100.00
50933;BME280;36921;49.006;9.292;2022-11-12T01:52:48;100349.66;;;1.52;100.00
50933;BME280;36921;49.006;9.292;2022-11-12T01:55:20;100367.03;;;1.58;100.00
50933;BME280;36921;49.006;9.292;2022-11-12T01:57:50;100376.81;;;1.57;100.00
50933;BME280;36921;49.006;9.292;2022-11-12T02:00:17;100355.72;;;1.41;100.00
50933;BME280;36921;49.006;9.292;2022-11-12T02:02:46;100370.03;;;1.53;100.00
50933;BME280;36921;49.006;9.292;2022-11-12T02:05:14;100352.00;;;1.31;100.00
50933;BME280;36921;49.006;9.292;2022-11-12T02:07:42;100358.72;;;1.37;100.00
50933;BME280;36921;49.006;9.292;2022-11-12T02:10:09;100352.72;;;1.33;100.00
50933;BME280;36921;49.006;9.292;2022-11-12T02:12:35;100365.22;;;1.45;100.00
50933;BME280;36921;49.006;9.292;2022-11-12T02:15:20;100356.69;;;1.53;100.00
50933;BME280;36921;49.006;9.292;2022-11-12T02:17:45;100344.84;;;1.44;100.00
50933;BME280;36921;49.006;9.292;2022-11-12T02:20:12;100357.22;;;1.58;100.00
50933;BME280;36921;49.006;9.292;2022-11-12T02:22:38;100361.78;;;1.69;100.00
50933;BME280;36921;49.006;9.292;2022-11-12T02:25:04;100372.47;;;1.56;100.00
50933;BME280;36921;49.006;9.292;2022-11-12T02:27:30;100356.47;;;1.43;100.00
50933;BME280;36921;49.006;9.292;2022-11-12T02:29:55;100347.94;;;1.38;100.00
50933;BME280;36921;49.006;9.292;2022-11-12T02:32:20;100357.53;;;1.41;100.00
50933;BME280;36921;49.006;9.292;2022-11-12T02:34:46;100356.69;;;1.40;100.00
50933;BME280;36921;49.006;9.292;2022-11-12T02:37:11;100338.63;;;1.44;100.00
50933;BME280;36921;49.006;9.292;2022-11-12T02:39:36;100359.97;;;1.57;100.00
50933;BME280;36921;49.006;9.292;2022-11-12T02:42:02;100317.84;;;1.36;100.00
50933;BME280;36921;49.006;9.292;2022-11-12T02:44:28;100359.22;;;1.54;100.00
50933;BME280;36921;49.006;9.292;2022-11-12T02:46:54;100341.66;;;1.39;100.00
50933;BME280;36921;49.006;9.292;2022-11-12T02:49:20;100347.09;;;1.38;100.00
50933;BME280;36921;49.006;9.292;2022-11-12T02:51:45;100352.09;;;1.42;100.00
50933;BME280;36921;49.006;9.292;2022-11-12T02:54:10;100325.13;;;1.34;100.00
50933;BME280;36921;49.006;9.292;2022-11-12T02:56:36;100330.22;;;1.37;100.00
50933;BME280;36921;49.006;9.292;2022-11-12T02:59:01;100338.22;;;1.37;100.00
50933;BME280;36921;49.006;9.292;2022-11-12T03:01:26;100347.41;;;1.46;100.00
50933;BME280;36921;49.006;9.292;2022-11-12T03:03:52;100339.41;;;1.46;100.00
50933;BME280;36921;49.006;9.292;2022-11-12T03:06:17;100365.09;;;1.60;100.00
50933;BME280;36921;49.006;9.292;2022-11-12T03:08:43;100354.41;;;1.60;100.00
50933;BME280;36921;49.006;9.292;2022-11-12T03:11:10;100362.63;;;1.69;100.00
50933;BME280;36921;49.006;9.292;2022-11-12T03:13:37;100224.66;;;0.83;100.00
50933;BME280;36921;49.006;9.292;2022-11-12T03:16:03;100367.97;;;1.57;100.00
50933;BME280;36921;49.006;9.292;2022-11-12T03:18:28;100369.16;;;1.65;100.00
50933;BME280;36921;49.006;9.292;2022-11-12T03:20:54;100344.94;;;1.56;100.00
50933;BME280;36921;49.006;9.292;2022-11-12T03:23:19;100341.75;;;1.50;100.00
50933;BME280;36921;49.006;9.292;2022-11-12T03:25:44;100356.47;;;1.56;100.00
50933;BME280;36921;49.006;9.292;2022-11-12T03:28:11;100329.56;;;1.46;100.00
50933;BME280;36921;49.006;9.292;2022-11-12T03:30:39;100348.38;;;1.58;100.00
50933;BME280;36921;49.006;9.292;2022-11-12T03:33:07;100357.97;;;1.60;100.00
50933;BME280;36921;49.006;9.292;2022-11-12T03:35:33;100357.31;;;1.57;100.00
50933;BME280;36921;49.006;9.292;2022-11-12T03:37:59;100353.38;;;1.49;100.00
50933;BME280;36921;49.006;9.292;2022-11-12T03:40:25;100328.50;;;1.36;100.00
50933;BME280;36921;49.006;9.292;2022-11-12T03:42:51;100360.50;;;1.49;100.00
50933;BME280;36921;49.006;9.292;2022-11-12T03:45:18;100355.09;;;1.50;100.00
50933;BME280;36921;49.006;9.292;2022-11-12T03:47:45;100359.66;;;1.48;100.00
50933;BME280;36921;49.006;9.292;2022-11-12T03:50:12;100352.72;;;1.46;100.00
50933;BME280;36921;49.006;9.292;2022-11-12T03:52:38;100343.03;;;1.32;100.00
50933;BME280;36921;49.006;9.292;2022-11-12T03:55:06;100314.66;;;1.18;100.00
50933;BME280;36921;49.006;9.292;2022-11-12T03:57:31;100318.72;;;1.24;100.00
50933;BME280;36921;49.006;9.292;2022-11-12T03:59:57;100326.41;;;1.28;100.00
50933;BME280;36921;49.006;9.292;2022-11-12T04:02:22;100308.91;;;1.24;100.00
50933;BME280;36921;49.006;9.292;2022-11-12T04:04:49;100354.03;;;1.53;100.00
50933;BME280;36921;49.006;9.292;2022-11-12T04:07:33;100351.56;;;1.63;100.00
50933;BME280;36921;49.006;9.292;2022-11-12T04:10:17;100355.59;;;1.68;100.00
50933;BME280;36921;49.006;9.292;2022-11-12T04:12:42;100347.28;;;1.73;100.00
50933;BME280;36921;49.006;9.292;2022-11-12T04:15:26;100334.66;;;1.75;100.00
50933;BME280;36921;49.006;9.292;2022-11-12T04:17:51;100355.25;;;1.86;100.00
50933;BME280;36921;49.006;9.292;2022-11-12T04:20:35;100357.59;;;1.90;100.00
50933;BME280;36921;49.006;9.292;2022-11-12T04:23:23;100352.94;;;1.68;100.00
50933;BME280;36921;49.006;9.292;2022-11-12T04:25:48;100347.06;;;1.63;100.00
50933;BME280;36921;49.006;9.292;2022-11-12T04:28:32;100362.41;;;1.72;100.00
50933;BME280;36921;49.006;9.292;2022-11-12T04:30:57;100369.88;;;1.67;100.00
50933;BME280;36921;49.006;9.292;2022-11-12T04:33:23;100349.44;;;1.55;100.00
50933;BME280;36921;49.006;9.292;2022-11-12T04:35:48;100359.88;;;1.71;100.00
50933;BME280;36921;49.006;9.292;2022-11-12T04:38:13;100347.91;;;1.89;100.00
50933;BME280;36921;49.006;9.292;2022-11-12T04:40:38;100356.78;;;2.14;100.00
50933;BME280;36921;49.006;9.292;2022-11-12T04:43:22;100354.53;;;2.21;100.00
50933;BME280;36921;49.006;9.292;2022-11-12T04:46:06;100330.31;;;2.11;100.00
50933;BME280;36921;49.006;9.292;2022-11-12T04:48:31;100352.03;;;2.30;100.00
50933;BME280;36921;49.006;9.292;2022-11-12T04:51:04;100358.25;;;2.31;100.00
50933;BME280;36921;49.006;9.292;2022-11-12T04:53:53;100352.50;;;2.24;100.00
50933;BME280;36921;49.006;9.292;2022-11-12T04:56:18;100373.09;;;2.22;100.00
50933;BME280;36921;49.006;9.292;2022-11-12T04:58:43;100303.00;;;1.70;100.00
50933;BME280;36921;49.006;9.292;2022-11-12T05:01:09;100348.31;;;1.83;100.00
50933;BME280;36921;49.006;9.292;2022-11-12T05:03:34;100334.66;;;1.75;100.00
50933;BME280;36921;49.006;9.292;2022-11-12T05:06:01;100377.31;;;2.01;100.00
50933;BME280;36921;49.006;9.292;2022-11-12T05:08:27;100368.56;;;1.98;100.00
50933;BME280;36921;49.006;9.292;2022-11-12T05:10:52;100382.66;;;2.01;100.00
50933;BME280;36921;49.006;9.292;2022-11-12T05:13:17;100376.72;;;1.97;100.00
50933;BME280;36921;49.006;9.292;2022-11-12T05:15:43;100355.59;;;1.81;100.00
50933;BME280;36921;49.006;9.292;2022-11-12T05:18:08;100365.28;;;1.95;100.00
50933;BME280;36921;49.006;9.292;2022-11-12T05:20:34;100373.28;;;1.95;100.00
50933;BME280;36921;49.006;9.292;2022-11-12T05:22:59;100352.69;;;1.97;100.00
50933;BME280;36921;49.006;9.292;2022-11-12T05:25:24;100360.56;;;1.98;100.00
50933;BME280;36921;49.006;9.292;2022-11-12T05:27:50;100352.38;;;1.89;100.00
50933;BME280;36921;49.006;9.292;2022-11-12T05:30:15;100370.28;;;2.00;100.00
50933;BME280;36921;49.006;9.292;2022-11-12T05:32:40;100366.19;;;2.07;100.00
50933;BME280;36921;49.006;9.292;2022-11-12T05:35:06;100376.59;;;2.35;100.00
50933;BME280;36921;49.006;9.292;2022-11-12T05:37:31;100380.53;;;2.42;100.00
50933;BME280;36921;49.006;9.292;2022-11-12T05:39:56;100360.41;;;2.50;100.00
50933;BME280;36921;49.006;9.292;2022-11-12T05:42:22;100342.38;;;2.40;100.00
50933;BME280;36921;49.006;9.292;2022-11-12T05:44:47;100339.72;;;2.40;100.00
50933;BME280;36921;49.006;9.292;2022-11-12T05:47:12;100328.47;;;2.24;100.00
50933;BME280;36921;49.006;9.292;2022-11-12T05:49:38;100358.78;;;2.36;100.00
50933;BME280;36921;49.006;9.292;2022-11-12T05:52:03;100369.03;;;2.29;100.00
50933;BME280;36921;49.006;9.292;2022-11-12T05:54:28;100374.09;;;2.45;100.00
50933;BME280;36921;49.006;9.292;2022-11-12T05:56:53;100337.34;;;2.12;100.00
50933;BME280;36921;49.006;9.292;2022-11-12T05:59:19;100353.81;;;2.06;100.00
50933;BME280;36921;49.006;9.292;2022-11-12T06:01:44;100355.56;;;1.94;100.00
50933;BME280;36921;49.006;9.292;2022-11-12T06:04:11;100357.06;;;1.85;100.00
50933;BME280;36921;49.006;9.292;2022-11-12T06:06:37;100365.19;;;1.96;100.00
50933;BME280;36921;49.006;9.292;2022-11-12T06:09:03;100331.91;;;1.64;100.00
50933;BME280;36921;49.006;9.292;2022-11-12T06:11:29;100340.78;;;1.64;100.00
50933;BME280;36921;49.006;9.292;2022-11-12T06:13:54;100340.91;;;1.63;100.00
50933;BME280;36921;49.006;9.292;2022-11-12T06:16:20;100355.31;;;1.60;100.00
50933;BME280;36921;49.006;9.292;2022-11-12T06:18:45;100327.88;;;1.33;100.00
50933;BME280;36921;49.006;9.292;2022-11-12T06:21:11;100364.38;;;1.58;100.00
50933;BME280;36921;49.006;9.292;2022-11-12T06:23:51;100373.13;;;1.47;100.00
50933;BME280;36921;49.006;9.292;2022-11-12T06:26:18;100393.50;;;1.61;100.00
50933;BME280;36921;49.006;9.292;2022-11-12T06:28:44;100366.19;;;1.44;100.00
50933;BME280;36921;49.006;9.292;2022-11-12T06:31:09;100375.66;;;1.48;100.00
50933;BME280;36921;49.006;9.292;2022-11-12T06:33:35;100359.78;;;1.47;100.00
50933;BME280;36921;49.006;9.292;2022-11-12T06:36:03;100393.59;;;1.72;100.00
50933;BME280;36921;49.006;9.292;2022-11-12T06:38:29;100377.38;;;1.62;100.00
50933;BME280;36921;49.006;9.292;2022-11-12T06:40:55;100403.41;;;1.84;100.00
50933;BME280;36921;49.006;9.292;2022-11-12T06:43:20;100366.28;;;1.81;100.00
50933;BME280;36921;49.006;9.292;2022-11-12T06:45:46;100377.56;;;1.97;100.00
50933;BME280;36921;49.006;9.292;2022-11-12T06:48:11;100346.16;;;1.88;100.00
50933;BME280;36921;49.006;9.292;2022-11-12T06:50:36;100369.00;;;2.05;100.00
50933;BME280;36921;49.006;9.292;2022-11-12T06:53:02;100379.94;;;2.26;100.00
50933;BME280;36921;49.006;9.292;2022-11-12T06:55:27;100402.63;;;2.45;100.00
50933;BME280;36921;49.006;9.292;2022-11-12T06:57:52;100392.66;;;2.59;100.00
50933;BME280;36921;49.006;9.292;2022-11-12T07:00:18;100394.53;;;2.70;100.00
50933;BME280;36921;49.006;9.292;2022-11-12T07:02:43;100375.16;;;2.91;100.00
50933;BME280;36921;49.006;9.292;2022-11-12T07:05:09;100387.22;;;3.32;100.00
50933;BME280;36921;49.006;9.292;2022-11-12T07:07:34;100373.16;;;3.63;100.00
50933;BME280;36921;49.006;9.292;2022-11-12T07:10:00;100368.13;;;4.26;100.00
50933;BME280;36921;49.006;9.292;2022-11-12T07:12:26;100368.94;;;4.93;100.00
50933;BME280;36921;49.006;9.292;2022-11-12T07:14:51;100348.72;;;5.52;100.00
50933;BME280;36921;49.006;9.292;2022-11-12T07:17:16;100310.13;;;6.14;100.00
50933;BME280;36921;49.006;9.292;2022-11-12T07:19:42;100329.38;;;7.36;100.00
50933;BME280;36921;49.006;9.292;2022-11-12T07:22:07;100324.50;;;8.24;100.00
50933;BME280;36921;49.006;9.292;2022-11-12T07:24:32;100318.31;;;8.95;100.00
50933;BME280;36921;49.006;9.292;2022-11-12T07:26:57;100322.84;;;9.56;100.00
50933;BME280;36921;49.006;9.292;2022-11-12T07:29:23;100332.56;;;10.60;100.00
50933;BME280;36921;49.006;9.292;2022-11-12T07:31:48;100317.03;;;10.95;100.00
50933;BME280;36921;49.006;9.292;2022-11-12T07:34:13;100292.56;;;11.77;100.00
50933;BME280;36921;49.006;9.292;2022-11-12T07:36:39;100290.41;;;12.89;100.00
50933;BME280;36921;49.006;9.292;2022-11-12T07:39:04;100275.66;;;14.33;100.00
50933;BME280;36921;49.006;9.292;2022-11-12T07:41:29;100294.97;;;14.75;91.37
50933;BME280;36921;49.006;9.292;2022-11-12T07:43:55;100308.06;;;14.64;82.61
50933;BME280;36921;49.006;9.292;2022-11-12T07:46:22;100312.00;;;13.96;70.86
50933;BME280;36921;49.006;9.292;2022-11-12T07:48:49;100317.34;;;15.13;74.37
50933;BME280;36921;49.006;9.292;2022-11-12T07:51:15;100307.47;;;15.62;66.10
50933;BME280;36921;49.006;9.292;2022-11-12T07:53:41;100311.69;;;15.64;62.12
50933;BME280;36921;49.006;9.292;2022-11-12T07:56:10;100299.41;;;15.75;67.34
50933;BME280;36921;49.006;9.292;2022-11-12T07:58:35;100280.13;;;15.55;62.91
50933;BME280;36921;49.006;9.292;2022-11-12T08:03:35;100309.56;;;16.42;61.91
50933;BME280;36921;49.006;9.292;2022-11-12T08:06:00;100306.50;;;16.59;58.74
50933;BME280;36921;49.006;9.292;2022-11-12T08:08:26;100304.16;;;16.49;61.75
50933;BME280;36921;49.006;9.292;2022-11-12T08:10:55;100308.31;;;17.06;57.79
50933;BME280;36921;49.006;9.292;2022-11-12T08:13:22;100311.66;;;17.28;58.69
50933;BME280;36921;49.006;9.292;2022-11-12T08:15:47;100286.00;;;17.23;58.00
50933;BME280;36921;49.006;9.292;2022-11-12T08:18:13;100287.28;;;17.27;56.60
50933;BME280;36921;49.006;9.292;2022-11-12T08:20:38;100301.28;;;18.04;56.00
50933;BME280;36921;49.006;9.292;2022-11-12T08:23:03;100265.97;;;19.29;53.44
50933;BME280;36921;49.006;9.292;2022-11-12T08:25:29;100270.13;;;19.82;51.97
50933;BME280;36921;49.006;9.292;2022-11-12T08:27:55;100310.34;;;19.76;50.73
50933;BME280;36921;49.006;9.292;2022-11-12T08:30:21;100298.22;;;19.59;51.87
50933;BME280;36921;49.006;9.292;2022-11-12T08:32:46;100298.00;;;19.35;53.25
50933;BME280;36921;49.006;9.292;2022-11-12T08:35:11;100289.03;;;18.58;51.32
50933;BME280;36921;49.006;9.292;2022-11-12T08:37:37;100269.78;;;17.48;56.70
50933;BME280;36921;49.006;9.292;2022-11-12T08:40:02;100297.53;;;18.50;53.99
50933;BME280;36921;49.006;9.292;2022-11-12T08:42:27;100270.38;;;17.77;56.56
50933;BME280;36921;49.006;9.292;2022-11-12T08:44:53;100287.22;;;17.80;57.19
50933;BME280;36921;49.006;9.292;2022-11-12T08:47:18;100290.44;;;17.24;59.26
50933;BME280;36921;49.006;9.292;2022-11-12T08:49:43;100304.50;;;17.21;57.63
50933;BME280;36921;49.006;9.292;2022-11-12T08:52:08;100294.00;;;17.11;59.15
50933;BME280;36921;49.006;9.292;2022-11-12T08:54:34;100300.94;;;17.07;58.89
50933;BME280;36921;49.006;9.292;2022-11-12T08:56:59;100293.16;;;17.44;58.33
50933;BME280;36921;49.006;9.292;2022-11-12T08:59:24;100273.75;;;17.72;58.66
50933;BME280;36921;49.006;9.292;2022-11-12T09:01:50;100302.81;;;17.60;58.20
50933;BME280;36921;49.006;9.292;2022-11-12T09:04:15;100298.47;;;18.24;56.48
50933;BME280;36921;49.006;9.292;2022-11-12T09:06:40;100297.19;;;18.71;60.28
50933;BME280;36921;49.006;9.292;2022-11-12T09:09:06;100286.13;;;20.58;100.00
50933;BME280;36921;49.006;9.292;2022-11-12T09:11:31;100295.16;;;22.25;51.33
50933;BME280;36921;49.006;9.292;2022-11-12T09:14:49;100293.16;;;20.36;51.58
50933;BME280;36921;49.006;9.292;2022-11-12T09:17:15;100302.94;;;18.63;54.43
50933;BME280;36921;49.006;9.292;2022-11-12T09:19:40;100283.63;;;17.93;58.81
50933;BME280;36921;49.006;9.292;2022-11-12T09:22:06;100280.78;;;19.46;56.21
50933;BME280;36921;49.006;9.292;2022-11-12T09:24:31;100294.09;;;18.99;54.86
50933;BME280;36921;49.006;9.292;2022-11-12T09:26:57;100289.16;;;20.02;54.02
50933;BME280;36921;49.006;9.292;2022-11-12T09:29:23;100291.97;;;20.92;52.49
50933;BME280;36921;49.006;9.292;2022-11-12T09:31:48;100279.97;;;21.29;48.94
50933;BME280;36921;49.006;9.292;2022-11-12T09:34:13;100270.59;;;20.16;50.08
50933;BME280;36921;49.006;9.292;2022-11-12T09:36:39;100271.53;;;18.97;52.83
50933;BME280;36921;49.006;9.292;2022-11-12T09:39:04;100300.50;;;17.37;58.92
50933;BME280;36921;49.006;9.292;2022-11-12T09:41:37;100276.56;;;17.19;62.45
50933;BME280;36921;49.006;9.292;2022-11-12T09:44:13;100297.34;;;16.25;64.50
50933;BME280;36921;49.006;9.292;2022-11-12T09:47:00;100285.59;;;16.31;65.66
50933;BME280;36921;49.006;9.292;2022-11-12T09:49:42;100290.34;;;15.74;70.31
50933;BME280;36921;49.006;9.292;2022-11-12T09:52:16;100298.81;;;15.02;79.07
50933;BME280;36921;49.006;9.292;2022-11-12T09:54:43;100278.88;;;15.29;79.77
50933;BME280;36921;49.006;9.292;2022-11-12T09:57:12;100275.75;;;15.61;76.16
50933;BME280;36921;49.006;9.292;2022-11-12T09:59:40;100284.59;;;15.97;73.27
50933;BME280;36921;49.006;9.292;2022-11-12T10:02:41;100292.31;;;17.23;66.18
50933;BME280;36921;49.006;9.292;2022-11-12T10:05:53;100254.22;;;17.48;64.66
50933;BME280;36921;49.006;9.292;2022-11-12T10:11:27;100282.84;;;16.93;66.28
50933;BME280;36921;49.006;9.292;2022-11-12T10:17:11;100283.66;;;18.38;62.89
50933;BME280;36921;49.006;9.292;2022-11-12T10:19:55;100279.06;;;17.27;63.88
50933;BME280;36921;49.006;9.292;2022-11-12T10:22:39;100288.31;;;17.33;65.50
50933;BME280;36921;49.006;9.292;2022-11-12T10:25:14;100264.28;;;16.07;69.88
50933;BME280;36921;49.006;9.292;2022-11-12T10:27:42;100282.94;;;16.58;71.26
50933;BME280;36921;49.006;9.292;2022-11-12T10:30:16;100283.69;;;17.46;69.69
50933;BME280;36921;49.006;9.292;2022-11-12T10:32:44;100271.78;;;18.06;65.52
50933;BME280;36921;49.006;9.292;2022-11-12T10:35:16;100264.72;;;18.75;61.18
50933;BME280;36921;49.006;9.292;2022-11-12T10:37:49;100267.06;;;18.26;61.09
50933;BME280;36921;49.006;9.292;2022-11-12T10:45:46;100262.41;;;17.42;64.08
50933;BME280;36921;49.006;9.292;2022-11-12T10:48:26;100263.81;;;16.58;68.78
50933;BME280;36921;49.006;9.292;2022-11-12T10:50:53;100262.69;;;15.84;72.33
50933;BME280;36921;49.006;9.292;2022-11-12T10:55:58;100262.78;;;15.97;76.59
50933;BME280;36921;49.006;9.292;2022-11-12T10:58:24;100261.81;;;17.33;70.50
50933;BME280;36921;49.006;9.292;2022-11-12T11:01:04;100263.03;;;18.67;65.62
50933;BME280;36921;49.006;9.292;2022-11-12T11:03:34;100253.81;;;19.68;60.63
50933;BME280;36921;49.006;9.292;2022-11-12T11:06:04;100255.06;;;19.66;60.03
50933;BME280;36921;49.006;9.292;2022-11-12T11:11:16;100245.47;;;19.75;57.88
50933;BME280;36921;49.006;9.292;2022-11-12T11:13:43;100241.84;;;19.13;59.37
50933;BME280;36921;49.006;9.292;2022-11-12T11:16:21;100228.69;;;20.20;56.14
50933;BME280;36921;49.006;9.292;2022-11-12T11:18:53;100229.69;;;20.56;55.71
50933;BME280;36921;49.006;9.292;2022-11-12T11:27:01;100235.25;;;23.29;50.71
50933;BME280;36921;49.006;9.292;2022-11-12T11:32:18;100234.63;;;23.77;48.09
50933;BME280;36921;49.006;9.292;2022-11-12T11:37:44;100222.81;;;25.12;44.56
50933;BME280;36921;49.006;9.292;2022-11-12T11:40:17;100230.94;;;22.99;47.93
50933;BME280;36921;49.006;9.292;2022-11-12T11:45:44;100208.06;;;24.42;45.19
50933;BME280;36921;49.006;9.292;2022-11-12T11:56:41;100201.94;;;24.95;43.81
50933;BME280;36921;49.006;9.292;2022-11-12T12:02:09;100214.84;;;23.30;46.30
50933;BME280;36921;49.006;9.292;2022-11-12T12:04:48;100210.97;;;23.87;47.20
50933;BME280;36921;49.006;9.292;2022-11-12T12:20:47;100199.91;;;22.46;50.41
50933;BME280;36921;49.006;9.292;2022-11-12T12:25:51;100200.00;;;22.23;51.48
50933;BME280;36921;49.006;9.292;2022-11-12T12:28:36;100196.06;;;22.19;52.31
50933;BME280;36921;49.006;9.292;2022-11-12T12:31:08;100172.84;;;21.04;53.22
50933;BME280;36921;49.006;9.292;2022-11-12T12:34:38;100194.97;;;20.97;54.45
50933;BME280;36921;49.006;9.292;2022-11-12T12:36:40;100180.78;;;20.58;55.33
50933;BME280;36921;49.006;9.292;2022-11-12T12:39:19;100193.53;;;20.22;55.89
50933;BME280;36921;49.006;9.292;2022-11-12T12:42:02;100185.44;;;19.60;59.27
50933;BME280;36921;49.006;9.292;2022-11-12T12:44:30;100183.41;;;19.74;58.83
50933;BME280;36921;49.006;9.292;2022-11-12T12:47:20;100162.16;;;19.26;61.10
50933;BME280;36921;49.006;9.292;2022-11-12T12:49:46;100172.88;;;19.71;59.76
50933;BME280;36921;49.006;9.292;2022-11-12T12:52:13;100164.63;;;19.89;59.13
50933;BME280;36921;49.006;9.292;2022-11-12T12:57:27;100161.78;;;19.78;59.55
50933;BME280;36921;49.006;9.292;2022-11-12T13:02:57;100138.69;;;19.48;62.22
50933;BME280;36921;49.006;9.292;2022-11-12T13:07:49;100152.75;;;20.07;61.80
50933;BME280;36921;49.006;9.292;2022-11-12T13:15:43;100139.13;;;19.09;64.01
50933;BME280;36921;49.006;9.292;2022-11-12T13:18:08;100143.59;;;19.03;65.21
50933;BME280;36921;49.006;9.292;2022-11-12T13:20:40;100127.50;;;18.63;67.79
50933;BME280;36921;49.006;9.292;2022-11-12T13:23:11;100140.66;;;19.23;66.76
50933;BME280;36921;49.006;9.292;2022-11-12T13:29:24;100132.88;;;19.38;66.17
50933;BME280;36921;49.006;9.292;2022-11-12T13:32:28;100131.16;;;18.82;66.68
50933;BME280;36921;49.006;9.292;2022-11-12T13:37:42;100125.75;;;18.12;69.32
50933;BME280;36921;49.006;9.292;2022-11-12T13:40:12;100132.41;;;17.91;72.81
50933;BME280;36921;49.006;9.292;2022-11-12T13:42:38;100127.97;;;17.38;77.13
50933;BME280;36921;49.006;9.292;2022-11-12T13:45:14;100119.31;;;17.48;77.17
50933;BME280;36921;49.006;9.292;2022-11-12T13:47:40;100107.78;;;17.33;80.31
50933;BME280;36921;49.006;9.292;2022-11-12T13:50:08;100122.13;;;17.08;83.29
50933;BME280;36921;49.006;9.292;2022-11-12T13:52:38;100119.22;;;17.03;88.57
50933;BME280;36921;49.006;9.292;2022-11-12T13:55:20;100129.94;;;17.11;85.58
50933;BME280;36921;49.006;9.292;2022-11-12T13:57:54;100123.88;;;16.82;88.27
50933;BME280;36921;49.006;9.292;2022-11-12T14:02:59;100115.81;;;16.21;100.00
50933;BME280;36921;49.006;9.292;2022-11-12T14:05:27;100112.81;;;15.83;100.00
50933;BME280;36921;49.006;9.292;2022-11-12T14:13:54;100108.78;;;14.89;100.00
50933;BME280;36921;49.006;9.292;2022-11-12T14:17:14;100115.66;;;14.85;100.00
50933;BME280;36921;49.006;9.292;2022-11-12T14:22:18;100116.84;;;14.76;100.00
50933;BME280;36921;49.006;9.292;2022-11-12T14:24:44;100114.03;;;14.41;100.00
50933;BME280;36921;49.006;9.292;2022-11-12T14:32:35;100103.00;;;14.06;100.00
50933;BME280;36921;49.006;9.292;2022-11-12T14:35:16;100117.66;;;14.05;100.00
50933;BME280;36921;49.006;9.292;2022-11-12T14:37:47;100094.19;;;13.82;100.00